sensor_id;sensor_type;location;lat;lon;timestamp;pressure;altitude;pressure_sealevel;temperature;humidity
30819;BME280;17546;42.674;23.284;2023-01-05T00:00:49;95555.56;;;14.83;45.88
30819;BME280;17546;42.674;23.284;2023-01-05T00:03:14;95554.81;;;14.88;45.77
30819;BME280;17546;42.674;23.284;2023-01-05T00:05:40;95553.03;;;14.85;45.84
30819;BME280;17546;42.674;23.284;2023-01-05T00:08:05;95566.44;;;14.70;46.13
30819;BME280;17546;42.674;23.284;2023-01-05T00:10:30;95557.81;;;14.68;46.14
30819;BME280;17546;42.674;23.284;2023-01-05T00:13:15;95558.47;;;14.29;46.76
30819;BME280;17546;42.674;23.284;2023-01-05T00:15:59;95545.84;;;14.45;46.63
30819;BME280;17546;42.674;23.284;2023-01-05T00:18:43;95544.38;;;14.61;46.32
30819;BME280;17546;42.674;23.284;2023-01-05T00:21:27;95538.94;;;14.23;46.85
30819;BME280;17546;42.674;23.284;2023-01-05T00:24:11;95536.97;;;14.52;46.49
30819;BME280;17546;42.674;23.284;2023-01-05T00:26:36;95538.28;;;14.57;46.44
30819;BME280;17546;42.674;23.284;2023-01-05T00:29:01;95534.19;;;14.52;46.56
30819;BME280;17546;42.674;23.284;2023-01-05T00:31:27;95538.50;;;14.42;46.44
30819;BME280;17546;42.674;23.284;2023-01-05T00:33:52;95527.59;;;14.50;46.35
30819;BME280;17546;42.674;23.284;2023-01-05T00:36:17;95525.56;;;14.44;46.58
30819;BME280;17546;42.674;23.284;2023-01-05T00:38:43;95517.75;;;14.65;46.17
30819;BME280;17546;42.674;23.284;2023-01-05T00:41:08;95520.31;;;14.75;46.19
30819;BME280;17546;42.674;23.284;2023-01-05T00:43:34;95515.50;;;14.75;45.94
30819;BME280;17546;42.674;23.284;2023-01-05T00:45:59;95525.41;;;14.82;45.96
30819;BME280;17546;42.674;23.284;2023-01-05T00:48:24;95528.44;;;14.90;45.50
30819;BME280;17546;42.674;23.284;2023-01-05T00:50:50;95522.88;;;14.95;45.39
30819;BME280;17546;42.674;23.284;2023-01-05T00:53:15;95521.06;;;15.03;45.54
30819;BME280;17546;42.674;23.284;2023-01-05T00:55:41;95518.53;;;15.05;45.36
30819;BME280;17546;42.674;23.284;2023-01-05T00:58:06;95530.22;;;15.09;45.20
30819;BME280;17546;42.674;23.284;2023-01-05T01:00:31;95517.28;;;15.06;45.11
30819;BME280;17546;42.674;23.284;2023-01-05T01:02:57;95527.44;;;15.15;44.86
30819;BME280;17546;42.674;23.284;2023-01-05T01:05:22;95521.84;;;15.15;44.86
30819;BME280;17546;42.674;23.284;2023-01-05T01:07:48;95524.88;;;15.23;44.66
30819;BME280;17546;42.674;23.284;2023-01-05T01:10:13;95525.13;;;15.19;44.79
30819;BME280;17546;42.674;23.284;2023-01-05T01:12:39;95516.75;;;15.25;44.67
30819;BME280;17546;42.674;23.284;2023-01-05T01:15:05;95523.34;;;15.33;44.55
30819;BME280;17546;42.674;23.284;2023-01-05T01:17:31;95520.56;;;15.33;44.59
30819;BME280;17546;42.674;23.284;2023-01-05T01:19:56;95525.34;;;15.38;44.51
30819;BME280;17546;42.674;23.284;2023-01-05T01:22:22;95518.78;;;15.24;44.82
30819;BME280;17546;42.674;23.284;2023-01-05T01:24:47;95515.72;;;15.39;44.63
30819;BME280;17546;42.674;23.284;2023-01-05T01:27:13;95510.66;;;15.43;44.51
30819;BME280;17546;42.674;23.284;2023-01-05T01:29:38;95504.28;;;15.48;44.39
30819;BME280;17546;42.674;23.284;2023-01-05T01:32:04;95495.13;;;15.54;44.17
30819;BME280;17546;42.674;23.284;2023-01-05T01:34:29;95491.06;;;15.49;44.23
30819;BME280;17546;42.674;23.284;2023-01-05T01:36:55;95496.41;;;15.53;44.31
30819;BME280;17546;42.674;23.284;2023-01-05T01:39:21;95492.03;;;15.63;43.90
30819;BME280;17546;42.674;23.284;2023-01-05T01:41:46;95487.03;;;15.44;44.32
30819;BME280;17546;42.674;23.284;2023-01-05T01:44:45;95471.00;;;15.56;44.07
30819;BME280;17546;42.674;23.284;2023-01-05T01:50:30;95465.66;;;15.64;43.88
30819;BME280;17546;42.674;23.284;2023-01-05T01:52:57;95464.91;;;15.58;44.18
30819;BME280;17546;42.674;23.284;2023-01-05T01:55:23;95460.38;;;15.55;44.09
30819;BME280;17546;42.674;23.284;2023-01-05T01:57:49;95453.78;;;15.52;44.06
30819;BME280;17546;42.674;23.284;2023-01-05T02:00:16;95449.16;;;15.60;44.04
30819;BME280;17546;42.674;23.284;2023-01-05T02:02:44;95452.22;;;15.57;44.10
30819;BME280;17546;42.674;23.284;2023-01-05T02:05:11;95449.19;;;15.55;44.12
30819;BME280;17546;42.674;23.284;2023-01-05T02:07:47;95446.09;;;15.64;43.68
30819;BME280;17546;42.674;23.284;2023-01-05T02:10:16;95445.88;;;15.56;43.96
30819;BME280;17546;42.674;23.284;2023-01-05T02:15:22;95433.69;;;15.54;43.93
30819;BME280;17546;42.674;23.284;2023-01-05T02:26:44;95428.41;;;15.50;43.70
30819;BME280;17546;42.674;23.284;2023-01-05T02:31:58;95428.91;;;15.48;43.69
30819;BME280;17546;42.674;23.284;2023-01-05T02:34:35;95424.56;;;15.53;43.81
30819;BME280;17546;42.674;23.284;2023-01-05T02:37:13;95426.34;;;15.50;43.79
30819;BME280;17546;42.674;23.284;2023-01-05T02:39:56;95426.84;;;15.49;43.70
30819;BME280;17546;42.674;23.284;2023-01-05T02:42:23;95428.91;;;15.48;43.76
30819;BME280;17546;42.674;23.284;2023-01-05T02:44:49;95422.81;;;15.44;43.87
30819;BME280;17546;42.674;23.284;2023-01-05T02:49:51;95418.75;;;15.45;44.05
30819;BME280;17546;42.674;23.284;2023-01-05T02:52:20;95410.63;;;15.47;43.91
30819;BME280;17546;42.674;23.284;2023-01-05T02:54:57;95414.69;;;15.46;44.01
30819;BME280;17546;42.674;23.284;2023-01-05T02:57:30;95408.84;;;15.50;43.96
30819;BME280;17546;42.674;23.284;2023-01-05T03:00:17;95398.47;;;15.39;44.13
30819;BME280;17546;42.674;23.284;2023-01-05T03:02:45;95392.38;;;15.41;44.12
30819;BME280;17546;42.674;23.284;2023-01-05T03:05:22;95392.84;;;15.45;43.92
30819;BME280;17546;42.674;23.284;2023-01-05T03:07:52;95398.97;;;15.43;44.17
30819;BME280;17546;42.674;23.284;2023-01-05T03:10:18;95389.06;;;15.42;43.90
30819;BME280;17546;42.674;23.284;2023-01-05T03:13:05;95383.25;;;15.40;44.04
30819;BME280;17546;42.674;23.284;2023-01-05T03:15:52;95379.19;;;15.41;44.14
30819;BME280;17546;42.674;23.284;2023-01-05T03:18:23;95365.81;;;15.17;44.61
30819;BME280;17546;42.674;23.284;2023-01-05T03:20:51;95362.94;;;15.34;44.28
30819;BME280;17546;42.674;23.284;2023-01-05T03:23:19;95350.78;;;15.37;44.03
30819;BME280;17546;42.674;23.284;2023-01-05T03:26:06;95355.88;;;15.33;44.23
30819;BME280;17546;42.674;23.284;2023-01-05T03:28:55;95348.75;;;15.32;44.11
30819;BME280;17546;42.674;23.284;2023-01-05T03:32:20;95354.34;;;15.32;44.24
30819;BME280;17546;42.674;23.284;2023-01-05T03:35:18;95352.53;;;15.40;43.95
30819;BME280;17546;42.674;23.284;2023-01-05T03:38:18;95354.56;;;15.40;44.05
30819;BME280;17546;42.674;23.284;2023-01-05T03:40:50;95339.31;;;15.46;43.75
30819;BME280;17546;42.674;23.284;2023-01-05T03:43:16;95337.06;;;15.39;43.83
30819;BME280;17546;42.674;23.284;2023-01-05T03:45:45;95348.44;;;15.47;43.94
30819;BME280;17546;42.674;23.284;2023-01-05T03:48:14;95351.97;;;15.47;43.71
30819;BME280;17546;42.674;23.284;2023-01-05T03:50:40;95353.78;;;15.45;43.75
30819;BME280;17546;42.674;23.284;2023-01-05T03:53:06;95358.34;;;15.48;43.88
30819;BME280;17546;42.674;23.284;2023-01-05T03:55:32;95355.81;;;15.44;43.81
30819;BME280;17546;42.674;23.284;2023-01-05T03:57:57;95352.53;;;15.40;43.99
30819;BME280;17546;42.674;23.284;2023-01-05T04:00:23;95348.72;;;15.43;43.91
30819;BME280;17546;42.674;23.284;2023-01-05T04:02:50;95348.47;;;15.41;43.84
30819;BME280;17546;42.674;23.284;2023-01-05T04:05:15;95345.69;;;15.41;43.90
30819;BME280;17546;42.674;23.284;2023-01-05T04:07:41;95342.91;;;15.41;43.85
30819;BME280;17546;42.674;23.284;2023-01-05T04:10:06;95335.53;;;15.44;43.75
30819;BME280;17546;42.674;23.284;2023-01-05T04:12:32;95334.53;;;15.41;43.86
30819;BME280;17546;42.674;23.284;2023-01-05T04:14:57;95324.84;;;15.48;43.64
30819;BME280;17546;42.674;23.284;2023-01-05T04:17:23;95336.53;;;15.46;43.59
30819;BME280;17546;42.674;23.284;2023-01-05T04:19:48;95339.31;;;15.46;43.62
30819;BME280;17546;42.674;23.284;2023-01-05T04:22:13;95328.44;;;15.37;43.86
30819;BME280;17546;42.674;23.284;2023-01-05T04:24:39;95323.41;;;15.30;44.00
30819;BME280;17546;42.674;23.284;2023-01-05T04:27:04;95321.03;;;15.45;43.41
30819;BME280;17546;42.674;23.284;2023-01-05T04:29:29;95317.78;;;15.41;43.58
30819;BME280;17546;42.674;23.284;2023-01-05T04:31:55;95327.41;;;15.40;43.63
30819;BME280;17546;42.674;23.284;2023-01-05T04:34:20;95315.25;;;15.32;43.81
30819;BME280;17546;42.674;23.284;2023-01-05T04:36:46;95316.53;;;15.31;43.84
30819;BME280;17546;42.674;23.284;2023-01-05T04:39:14;95323.13;;;15.34;43.63
30819;BME280;17546;42.674;23.284;2023-01-05T04:41:40;95315.50;;;15.34;43.39
30819;BME280;17546;42.674;23.284;2023-01-05T04:44:05;95323.94;;;15.23;43.76
30819;BME280;17546;42.674;23.284;2023-01-05T04:46:31;95323.16;;;15.28;43.55
30819;BME280;17546;42.674;23.284;2023-01-05T04:48:56;95324.41;;;15.27;43.62
30819;BME280;17546;42.674;23.284;2023-01-05T04:51:22;95321.94;;;15.18;43.40
30819;BME280;17546;42.674;23.284;2023-01-05T04:53:48;95323.66;;;15.26;43.50
30819;BME280;17546;42.674;23.284;2023-01-05T04:56:13;95325.22;;;15.16;43.38
30819;BME280;17546;42.674;23.284;2023-01-05T04:58:39;95342.97;;;15.19;43.56
30819;BME280;17546;42.674;23.284;2023-01-05T05:01:04;95340.47;;;15.15;43.50
30819;BME280;17546;42.674;23.284;2023-01-05T05:03:30;95350.13;;;15.08;43.56
30819;BME280;17546;42.674;23.284;2023-01-05T05:05:55;95348.34;;;15.11;43.46
30819;BME280;17546;42.674;23.284;2023-01-05T05:08:20;95342.03;;;14.99;43.80
30819;BME280;17546;42.674;23.284;2023-01-05T05:10:46;95344.81;;;14.99;43.85
30819;BME280;17546;42.674;23.284;2023-01-05T05:13:11;95343.31;;;14.87;43.90
30819;BME280;17546;42.674;23.284;2023-01-05T05:15:37;95346.59;;;14.97;43.96
30819;BME280;17546;42.674;23.284;2023-01-05T05:18:02;95347.84;;;15.01;43.84
30819;BME280;17546;42.674;23.284;2023-01-05T05:20:28;95323.06;;;14.81;43.79
30819;BME280;17546;42.674;23.284;2023-01-05T05:22:53;95341.53;;;14.90;44.08
30819;BME280;17546;42.674;23.284;2023-01-05T05:25:18;95346.91;;;14.82;44.13
30819;BME280;17546;42.674;23.284;2023-01-05T05:27:44;95340.78;;;14.89;43.78
30819;BME280;17546;42.674;23.284;2023-01-05T05:30:09;95340.53;;;14.81;44.08
30819;BME280;17546;42.674;23.284;2023-01-05T05:32:35;95345.88;;;14.74;44.00
30819;BME280;17546;42.674;23.284;2023-01-05T05:35:01;95340.06;;;14.72;43.94
30819;BME280;17546;42.674;23.284;2023-01-05T05:37:26;95333.72;;;14.65;44.29
30819;BME280;17546;42.674;23.284;2023-01-05T05:39:51;95339.06;;;14.69;44.08
30819;BME280;17546;42.674;23.284;2023-01-05T05:42:17;95329.94;;;14.69;44.07
30819;BME280;17546;42.674;23.284;2023-01-05T05:44:42;95321.59;;;14.57;44.29
30819;BME280;17546;42.674;23.284;2023-01-05T05:47:07;95314.22;;;14.60;43.70
30819;BME280;17546;42.674;23.284;2023-01-05T05:49:33;95305.34;;;14.50;44.04
30819;BME280;17546;42.674;23.284;2023-01-05T05:51:58;95302.78;;;14.52;44.34
30819;BME280;17546;42.674;23.284;2023-01-05T05:54:24;95295.47;;;14.43;44.66
30819;BME280;17546;42.674;23.284;2023-01-05T05:56:49;95297.25;;;14.41;44.64
30819;BME280;17546;42.674;23.284;2023-01-05T05:59:15;95293.69;;;14.40;44.46
30819;BME280;17546;42.674;23.284;2023-01-05T06:01:40;95294.69;;;14.37;44.33
30819;BME280;17546;42.674;23.284;2023-01-05T06:04:05;95294.22;;;14.27;44.65
30819;BME280;17546;42.674;23.284;2023-01-05T06:06:31;95289.16;;;14.32;44.49
30819;BME280;17546;42.674;23.284;2023-01-05T06:08:56;95294.75;;;14.20;44.56
30819;BME280;17546;42.674;23.284;2023-01-05T06:11:22;95281.28;;;14.36;44.29
30819;BME280;17546;42.674;23.284;2023-01-05T06:13:47;95283.31;;;14.13;44.54
30819;BME280;17546;42.674;23.284;2023-01-05T06:16:13;95286.13;;;14.18;44.61
30819;BME280;17546;42.674;23.284;2023-01-05T06:18:39;95279.28;;;14.08;44.73
30819;BME280;17546;42.674;23.284;2023-01-05T06:21:05;95276.47;;;14.19;44.40
30819;BME280;17546;42.674;23.284;2023-01-05T06:23:30;95276.00;;;14.21;44.58
30819;BME280;17546;42.674;23.284;2023-01-05T06:25:56;95283.09;;;14.16;44.50
30819;BME280;17546;42.674;23.284;2023-01-05T06:28:21;95275.97;;;14.15;45.38
30819;BME280;17546;42.674;23.284;2023-01-05T06:30:47;95276.25;;;14.00;45.09
30819;BME280;17546;42.674;23.284;2023-01-05T06:33:12;95276.50;;;13.97;45.08
30819;BME280;17546;42.674;23.284;2023-01-05T06:35:38;95277.00;;;13.95;45.14
30819;BME280;17546;42.674;23.284;2023-01-05T06:38:03;95271.69;;;13.97;45.05
30819;BME280;17546;42.674;23.284;2023-01-05T06:40:29;95275.97;;;14.04;44.83
30819;BME280;17546;42.674;23.284;2023-01-05T06:42:57;95266.88;;;14.09;44.80
30819;BME280;17546;42.674;23.284;2023-01-05T06:45:22;95261.56;;;14.05;44.77
30819;BME280;17546;42.674;23.284;2023-01-05T06:47:47;95273.69;;;13.69;45.53
30819;BME280;17546;42.674;23.284;2023-01-05T06:50:13;95265.34;;;13.63;45.94
30819;BME280;17546;42.674;23.284;2023-01-05T06:52:38;95263.34;;;13.92;45.20
30819;BME280;17546;42.674;23.284;2023-01-05T06:55:11;95266.63;;;13.96;45.45
30819;BME280;17546;42.674;23.284;2023-01-05T06:57:37;95269.41;;;14.07;45.10
30819;BME280;17546;42.674;23.284;2023-01-05T07:00:06;95276.50;;;14.02;45.25
30819;BME280;17546;42.674;23.284;2023-01-05T07:02:32;95279.03;;;14.06;45.43
30819;BME280;17546;42.674;23.284;2023-01-05T07:04:57;95266.88;;;14.20;44.88
30819;BME280;17546;42.674;23.284;2023-01-05T07:07:22;95270.66;;;14.17;45.07
30819;BME280;17546;42.674;23.284;2023-01-05T07:09:48;95267.63;;;14.21;45.07
30819;BME280;17546;42.674;23.284;2023-01-05T07:12:15;95274.47;;;14.14;45.40
30819;BME280;17546;42.674;23.284;2023-01-05T07:14:41;95272.69;;;14.28;45.15
30819;BME280;17546;42.674;23.284;2023-01-05T07:17:06;95271.44;;;14.29;45.06
30819;BME280;17546;42.674;23.284;2023-01-05T07:19:32;95264.56;;;14.36;44.92
30819;BME280;17546;42.674;23.284;2023-01-05T07:21:57;95268.13;;;14.36;45.02
30819;BME280;17546;42.674;23.284;2023-01-05T07:24:23;95268.88;;;14.37;45.05
30819;BME280;17546;42.674;23.284;2023-01-05T07:26:48;95260.25;;;14.35;45.29
30819;BME280;17546;42.674;23.284;2023-01-05T07:29:15;95265.81;;;14.46;45.01
30819;BME280;17546;42.674;23.284;2023-01-05T07:31:40;95266.06;;;14.48;45.04
30819;BME280;17546;42.674;23.284;2023-01-05T07:34:05;95254.66;;;14.63;44.67
30819;BME280;17546;42.674;23.284;2023-01-05T07:36:32;95255.94;;;14.62;44.69
30819;BME280;17546;42.674;23.284;2023-01-05T07:38:58;95250.31;;;14.67;44.63
30819;BME280;17546;42.674;23.284;2023-01-05T07:41:23;95246.56;;;14.37;45.33
30819;BME280;17546;42.674;23.284;2023-01-05T07:43:49;95238.19;;;14.59;44.88
30819;BME280;17546;42.674;23.284;2023-01-05T07:46:14;95239.91;;;14.74;44.71
30819;BME280;17546;42.674;23.284;2023-01-05T07:48:40;95242.41;;;14.83;44.46
30819;BME280;17546;42.674;23.284;2023-01-05T07:51:06;95234.03;;;14.88;44.64
30819;BME280;17546;42.674;23.284;2023-01-05T07:53:34;95235.53;;;14.95;44.52
30819;BME280;17546;42.674;23.284;2023-01-05T07:56:01;95239.38;;;14.81;45.14
30819;BME280;17546;42.674;23.284;2023-01-05T07:58:28;95234.00;;;14.94;44.76
30819;BME280;17546;42.674;23.284;2023-01-05T08:00:53;95237.03;;;15.02;44.84
30819;BME280;17546;42.674;23.284;2023-01-05T08:03:20;95231.66;;;15.09;44.75
30819;BME280;17546;42.674;23.284;2023-01-05T08:05:45;95240.75;;;15.16;44.71
30819;BME280;17546;42.674;23.284;2023-01-05T08:08:11;95237.97;;;15.16;44.88
30819;BME280;17546;42.674;23.284;2023-01-05T08:10:41;95234.31;;;15.32;44.52
30819;BME280;17546;42.674;23.284;2023-01-05T08:13:08;95228.53;;;15.24;44.46
30819;BME280;17546;42.674;23.284;2023-01-05T08:15:54;95223.63;;;15.36;44.42
30819;BME280;17546;42.674;23.284;2023-01-05T08:18:20;95222.50;;;15.15;44.80
30819;BME280;17546;42.674;23.284;2023-01-05T08:21:04;95223.19;;;14.79;45.34
30819;BME280;17546;42.674;23.284;2023-01-05T08:23:33;95228.28;;;15.22;44.63
30819;BME280;17546;42.674;23.284;2023-01-05T08:26:16;95228.25;;;15.28;44.47
30819;BME280;17546;42.674;23.284;2023-01-05T08:28:43;95231.59;;;15.21;44.79
30819;BME280;17546;42.674;23.284;2023-01-05T08:31:13;95235.91;;;15.22;44.70
30819;BME280;17546;42.674;23.284;2023-01-05T08:33:39;95231.22;;;15.41;44.64
30819;BME280;17546;42.674;23.284;2023-01-05T08:36:09;95234.19;;;15.55;44.23
30819;BME280;17546;42.674;23.284;2023-01-05T08:38:35;95216.53;;;15.35;44.10
30819;BME280;17546;42.674;23.284;2023-01-05T08:41:00;95216.06;;;15.31;44.12
30819;BME280;17546;42.674;23.284;2023-01-05T08:43:26;95216.97;;;15.45;43.82
30819;BME280;17546;42.674;23.284;2023-01-05T08:45:51;95219.44;;;15.54;43.51
30819;BME280;17546;42.674;23.284;2023-01-05T08:48:17;95219.94;;;15.58;43.51
30819;BME280;17546;42.674;23.284;2023-01-05T08:50:42;95222.44;;;15.26;44.01
30819;BME280;17546;42.674;23.284;2023-01-05T08:53:07;95204.72;;;15.18;44.14
30819;BME280;17546;42.674;23.284;2023-01-05T08:55:33;95205.31;;;15.46;44.09
30819;BME280;17546;42.674;23.284;2023-01-05T08:57:58;95189.47;;;15.60;43.79
30819;BME280;17546;42.674;23.284;2023-01-05T09:00:24;95208.41;;;15.37;44.04
30819;BME280;17546;42.674;23.284;2023-01-05T09:02:49;95200.88;;;15.21;43.90
30819;BME280;17546;42.674;23.284;2023-01-05T09:05:15;95190.78;;;14.59;44.71
30819;BME280;17546;42.674;23.284;2023-01-05T09:07:40;95182.34;;;14.76;45.01
30819;BME280;17546;42.674;23.284;2023-01-05T09:10:07;95177.41;;;15.05;44.31
30819;BME280;17546;42.674;23.284;2023-01-05T09:12:37;95162.97;;;15.01;44.53
30819;BME280;17546;42.674;23.284;2023-01-05T09:15:04;95161.63;;;15.13;44.40
30819;BME280;17546;42.674;23.284;2023-01-05T09:17:30;95149.09;;;15.25;44.15
30819;BME280;17546;42.674;23.284;2023-01-05T09:19:56;95144.66;;;14.53;45.47
30819;BME280;17546;42.674;23.284;2023-01-05T09:22:21;95129.59;;;14.84;45.14
30819;BME280;17546;42.674;23.284;2023-01-05T09:24:47;95123.28;;;14.78;44.99
30819;BME280;17546;42.674;23.284;2023-01-05T09:27:12;95118.72;;;14.75;45.44
30819;BME280;17546;42.674;23.284;2023-01-05T09:29:37;95099.91;;;15.22;44.12
30819;BME280;17546;42.674;23.284;2023-01-05T09:32:04;95099.38;;;14.88;44.25
30819;BME280;17546;42.674;23.284;2023-01-05T09:34:29;95105.19;;;14.90;44.54
30819;BME280;17546;42.674;23.284;2023-01-05T09:36:55;95103.59;;;15.06;44.09
30819;BME280;17546;42.674;23.284;2023-01-05T09:39:20;95099.31;;;15.35;43.74
30819;BME280;17546;42.674;23.284;2023-01-05T09:41:48;95100.66;;;15.59;43.72
30819;BME280;17546;42.674;23.284;2023-01-05T09:44:32;95094.31;;;15.83;43.08
30819;BME280;17546;42.674;23.284;2023-01-05T09:47:11;95072.75;;;15.83;42.53
30819;BME280;17546;42.674;23.284;2023-01-05T09:49:39;95073.78;;;16.29;42.40
30819;BME280;17546;42.674;23.284;2023-01-05T09:52:07;95070.38;;;16.74;41.67
30819;BME280;17546;42.674;23.284;2023-01-05T09:54:36;95064.56;;;16.72;41.42
30819;BME280;17546;42.674;23.284;2023-01-05T09:57:03;95066.22;;;16.62;40.82
30819;BME280;17546;42.674;23.284;2023-01-05T09:59:32;95062.75;;;16.56;40.65
30819;BME280;17546;42.674;23.284;2023-01-05T10:02:01;95054.09;;;17.11;40.54
30819;BME280;17546;42.674;23.284;2023-01-05T10:04:31;95049.00;;;16.96;40.23
30819;BME280;17546;42.674;23.284;2023-01-05T10:07:01;95050.19;;;16.82;40.00
30819;BME280;17546;42.674;23.284;2023-01-05T10:09:30;95051.50;;;16.81;40.57
30819;BME280;17546;42.674;23.284;2023-01-05T10:15:00;95044.16;;;17.29;39.40
30819;BME280;17546;42.674;23.284;2023-01-05T10:17:32;95041.19;;;17.53;39.98
30819;BME280;17546;42.674;23.284;2023-01-05T10:19:58;95042.09;;;17.75;38.81
30819;BME280;17546;42.674;23.284;2023-01-05T10:22:38;95045.88;;;18.04;38.74
30819;BME280;17546;42.674;23.284;2023-01-05T10:25:22;95046.53;;;18.24;38.04
30819;BME280;17546;42.674;23.284;2023-01-05T10:28:00;95032.34;;;18.43;37.82
30819;BME280;17546;42.674;23.284;2023-01-05T10:30:53;95023.97;;;18.29;37.51
30819;BME280;17546;42.674;23.284;2023-01-05T10:36:34;95013.78;;;18.53;36.76
30819;BME280;17546;42.674;23.284;2023-01-05T10:39:45;95028.41;;;18.72;37.23
30819;BME280;17546;42.674;23.284;2023-01-05T10:42:12;95022.22;;;18.74;37.09
30819;BME280;17546;42.674;23.284;2023-01-05T10:44:55;95008.47;;;18.97;36.46
30819;BME280;17546;42.674;23.284;2023-01-05T10:47:24;94995.47;;;18.86;35.65
30819;BME280;17546;42.674;23.284;2023-01-05T10:49:50;94986.59;;;19.16;35.88
30819;BME280;17546;42.674;23.284;2023-01-05T10:52:18;94972.94;;;19.20;36.12
30819;BME280;17546;42.674;23.284;2023-01-05T10:54:51;94986.75;;;19.39;35.27
30819;BME280;17546;42.674;23.284;2023-01-05T10:59:54;94975.75;;;19.20;35.55
30819;BME280;17546;42.674;23.284;2023-01-05T11:02:20;94984.09;;;19.34;35.15
30819;BME280;17546;42.674;23.284;2023-01-05T11:04:46;94970.06;;;19.13;35.42
30819;BME280;17546;42.674;23.284;2023-01-05T11:07:12;94971.16;;;18.89;35.00
30819;BME280;17546;42.674;23.284;2023-01-05T11:09:39;94963.63;;;19.05;35.03
30819;BME280;17546;42.674;23.284;2023-01-05T11:12:17;94962.22;;;19.40;34.36
30819;BME280;17546;42.674;23.284;2023-01-05T11:14:48;94960.81;;;19.26;34.73
30819;BME280;17546;42.674;23.284;2023-01-05T11:17:19;94961.09;;;19.14;34.56
30819;BME280;17546;42.674;23.284;2023-01-05T11:19:49;94950.50;;;19.20;34.57
30819;BME280;17546;42.674;23.284;2023-01-05T11:24:51;94957.41;;;18.77;34.96
30819;BME280;17546;42.674;23.284;2023-01-05T11:32:43;94952.34;;;18.97;35.01
30819;BME280;17546;42.674;23.284;2023-01-05T11:35:23;94932.88;;;18.78;35.13
30819;BME280;17546;42.674;23.284;2023-01-05T11:37:51;94941.81;;;18.90;35.38
30819;BME280;17546;42.674;23.284;2023-01-05T11:40:18;94931.97;;;18.62;35.74
30819;BME280;17546;42.674;23.284;2023-01-05T11:42:45;94942.22;;;18.94;34.89
30819;BME280;17546;42.674;23.284;2023-01-05T11:45:18;94943.78;;;19.03;35.01
30819;BME280;17546;42.674;23.284;2023-01-05T11:47:56;94933.53;;;18.15;35.86
30819;BME280;17546;42.674;23.284;2023-01-05T11:50:25;94928.91;;;18.05;36.21
30819;BME280;17546;42.674;23.284;2023-01-05T11:52:56;94928.84;;;18.31;35.89
30819;BME280;17546;42.674;23.284;2023-01-05T11:55:37;94925.78;;;18.43;35.76
30819;BME280;17546;42.674;23.284;2023-01-05T12:11:26;94907.44;;;18.97;34.96
30819;BME280;17546;42.674;23.284;2023-01-05T12:16:55;94902.28;;;18.46;34.61
30819;BME280;17546;42.674;23.284;2023-01-05T12:30:58;94858.91;;;18.68;32.84
30819;BME280;17546;42.674;23.284;2023-01-05T12:33:56;94854.88;;;18.34;33.25
30819;BME280;17546;42.674;23.284;2023-01-05T12:47:47;94836.50;;;18.33;33.93
30819;BME280;17546;42.674;23.284;2023-01-05T12:50:22;94845.59;;;18.47;34.13
30819;BME280;17546;42.674;23.284;2023-01-05T12:52:55;94860.72;;;19.07;32.74
30819;BME280;17546;42.674;23.284;2023-01-05T12:55:25;94858.41;;;18.77;32.94
30819;BME280;17546;42.674;23.284;2023-01-05T12:58:10;94852.66;;;18.83;33.03
30819;BME280;17546;42.674;23.284;2023-01-05T13:00:39;94849.94;;;18.90;32.45
30819;BME280;17546;42.674;23.284;2023-01-05T13:03:21;94852.19;;;18.29;32.70
30819;BME280;17546;42.674;23.284;2023-01-05T13:05:59;94864.56;;;18.33;33.54
30819;BME280;17546;42.674;23.284;2023-01-05T13:08:40;94861.47;;;18.45;33.13
30819;BME280;17546;42.674;23.284;2023-01-05T13:11:35;94861.97;;;18.35;33.35
30819;BME280;17546;42.674;23.284;2023-01-05T13:14:12;94857.03;;;18.70;32.98
30819;BME280;17546;42.674;23.284;2023-01-05T13:16:44;94862.00;;;18.77;32.60
30819;BME280;17546;42.674;23.284;2023-01-05T13:22:07;94865.00;;;18.79;32.81
30819;BME280;17546;42.674;23.284;2023-01-05T13:24:50;94859.22;;;18.64;33.43
30819;BME280;17546;42.674;23.284;2023-01-05T13:27:17;94865.44;;;18.28;34.19
30819;BME280;17546;42.674;23.284;2023-01-05T13:29:46;94860.25;;;18.74;33.01
30819;BME280;17546;42.674;23.284;2023-01-05T13:37:43;94851.56;;;18.44;32.97
30819;BME280;17546;42.674;23.284;2023-01-05T13:54:03;94818.72;;;18.52;33.18
30819;BME280;17546;42.674;23.284;2023-01-05T13:56:30;94822.81;;;18.30;33.68
30819;BME280;17546;42.674;23.284;2023-01-05T13:59:03;94813.44;;;18.69;32.76
30819;BME280;17546;42.674;23.284;2023-01-05T14:01:33;94817.22;;;18.93;32.43
30819;BME280;17546;42.674;23.284;2023-01-05T14:04:00;94813.56;;;19.06;32.34
30819;BME280;17546;42.674;23.284;2023-01-05T14:06:29;94811.13;;;18.60;32.72
30819;BME280;17546;42.674;23.284;2023-01-05T14:08:59;94819.00;;;18.41;33.27
30819;BME280;17546;42.674;23.284;2023-01-05T14:11:27;94825.84;;;18.95;32.35
30819;BME280;17546;42.674;23.284;2023-01-05T14:13:59;94813.09;;;18.10;33.36
30819;BME280;17546;42.674;23.284;2023-01-05T14:22:04;94814.59;;;18.74;32.67
30819;BME280;17546;42.674;23.284;2023-01-05T14:24:45;94806.34;;;18.47;33.05
30819;BME280;17546;42.674;23.284;2023-01-05T14:27:20;94812.72;;;18.48;33.22
30819;BME280;17546;42.674;23.284;2023-01-05T14:32:38;94820.84;;;18.38;33.17
30819;BME280;17546;42.674;23.284;2023-01-05T14:37:52;94823.00;;;18.74;33.56
30819;BME280;17546;42.674;23.284;2023-01-05T14:42:52;94831.84;;;18.99;33.26
30819;BME280;17546;42.674;23.284;2023-01-05T14:45:29;94835.69;;;18.88;33.45
30819;BME280;17546;42.674;23.284;2023-01-05T14:47:58;94832.59;;;18.99;33.32
30819;BME280;17546;42.674;23.284;2023-01-05T14:50:40;94834.69;;;18.57;34.19
30819;BME280;17546;42.674;23.284;2023-01-05T14:56:13;94838.91;;;18.71;34.53